createdAt,value
2024-03-24T00:01:56.486Z,8.85
2024-03-24T00:03:09.497Z,8.82
2024-03-24T00:05:09.420Z,8.84
2024-03-24T00:07:09.461Z,8.86
2024-03-24T00:09:09.516Z,8.94
2024-03-24T00:11:09.403Z,8.97
2024-03-24T00:13:09.415Z,8.93
2024-03-24T00:15:09.593Z,8.96
2024-03-24T00:18:49.363Z,9
2024-03-24T00:20:49.495Z,9
2024-03-24T00:22:49.347Z,9.07
2024-03-24T00:24:49.353Z,9.01
2024-03-24T00:26:49.453Z,8.96
2024-03-24T00:28:49.345Z,9.05
2024-03-24T00:30:49.342Z,9.07
2024-03-24T00:33:52.422Z,9
2024-03-24T00:35:52.370Z,9.07
2024-03-24T00:37:52.359Z,8.94
2024-03-24T00:39:52.435Z,8.95
2024-03-24T00:41:52.340Z,8.97
2024-03-24T00:43:52.354Z,8.94
2024-03-24T00:45:52.463Z,8.86
2024-03-24T00:49:09.646Z,8.95
2024-03-24T00:51:09.476Z,8.95
2024-03-24T00:53:09.454Z,8.96
2024-03-24T00:55:09.627Z,8.93
2024-03-24T00:57:09.483Z,8.97
2024-03-24T00:59:09.454Z,8.99
2024-03-24T01:01:09.479Z,8.9
2024-03-24T01:03:54.331Z,8.87
2024-03-24T01:05:54.277Z,8.83
2024-03-24T01:07:54.278Z,8.87
2024-03-24T01:09:54.351Z,8.92
2024-03-24T01:11:54.246Z,8.97
2024-03-24T01:13:54.260Z,8.87
2024-03-24T01:15:54.325Z,8.84
2024-03-24T01:19:33.373Z,8.66
2024-03-24T01:21:33.490Z,8.94
2024-03-24T01:23:33.526Z,8.92
2024-03-24T01:25:33.358Z,8.92
2024-03-24T01:27:33.351Z,8.94
2024-03-24T01:29:33.594Z,9.03
2024-03-24T01:31:33.383Z,9.02
2024-03-24T01:34:30.104Z,8.9
2024-03-24T01:36:30.157Z,8.81
2024-03-24T01:38:30.124Z,8.92
2024-03-24T01:40:30.147Z,8.93
2024-03-24T01:42:30.069Z,8.94
2024-03-24T01:44:30.082Z,8.81
2024-03-24T01:46:30.094Z,8.79
2024-03-24T01:49:17.518Z,8.79
2024-03-24T01:51:17.532Z,8.88
2024-03-24T01:53:17.507Z,8.92
2024-03-24T01:55:17.529Z,9.02
2024-03-24T01:57:17.546Z,9.02
2024-03-24T01:59:17.508Z,9.15
2024-03-24T02:01:17.493Z,9.24
2024-03-24T02:04:41.755Z,9.18
2024-03-24T02:06:41.726Z,9.26
2024-03-24T02:08:41.722Z,9.28
2024-03-24T02:10:41.829Z,9.13
2024-03-24T02:12:41.745Z,8.93
2024-03-24T02:14:41.719Z,8.82
2024-03-24T02:16:41.833Z,8.86
2024-03-24T02:19:18.857Z,8.81
2024-03-24T02:21:18.840Z,8.47
2024-03-24T02:23:18.936Z,8.48
2024-03-24T02:25:18.838Z,8.75
2024-03-24T02:27:18.846Z,8.63
2024-03-24T02:29:18.977Z,8.78
2024-03-24T02:31:18.823Z,8.48
2024-03-24T02:34:38.646Z,8.83
2024-03-24T02:36:38.329Z,8.8
2024-03-24T02:38:38.325Z,8.69
2024-03-24T02:40:38.456Z,8.71
2024-03-24T02:42:38.325Z,8.73
2024-03-24T02:44:38.340Z,8.73
2024-03-24T02:46:38.390Z,8.69
2024-03-24T02:50:14.455Z,8.67
2024-03-24T02:52:14.538Z,8.6
2024-03-24T02:54:14.453Z,8.56
2024-03-24T02:56:14.443Z,8.54
2024-03-24T02:58:14.518Z,8.52
2024-03-24T03:00:14.474Z,8.4
2024-03-24T03:02:14.452Z,8.33
2024-03-24T03:05:15.216Z,8.34
2024-03-24T03:07:15.153Z,8.31
2024-03-24T03:09:15.149Z,8.22
2024-03-24T03:11:15.429Z,8.15
2024-03-24T03:13:15.171Z,8.07
2024-03-24T03:15:15.136Z,8.01
2024-03-24T03:17:15.224Z,7.94
2024-03-24T03:19:50.206Z,7.86
2024-03-24T03:21:50.207Z,7.66
2024-03-24T03:23:50.270Z,7.65
2024-03-24T03:25:50.448Z,7.66
2024-03-24T03:27:50.193Z,7.64
2024-03-24T03:29:50.195Z,7.63
2024-03-24T03:31:50.278Z,7.55
2024-03-24T03:34:51.694Z,7.5
2024-03-24T03:36:51.742Z,7.5
2024-03-24T03:38:51.686Z,7.46
2024-03-24T03:40:51.765Z,7.42
2024-03-24T03:42:51.670Z,7.34
2024-03-24T03:44:51.662Z,7.15
2024-03-24T03:46:51.706Z,7.27
2024-03-24T03:48:51.660Z,7.22
2024-03-24T03:50:33.195Z,7.03
2024-03-24T03:52:33.229Z,7.33
2024-03-24T03:54:33.182Z,7.28
2024-03-24T03:56:33.183Z,7.14
2024-03-24T03:58:33.237Z,7.02
2024-03-24T04:00:33.180Z,7.04
2024-03-24T04:02:33.181Z,7.02
2024-03-24T04:05:24.691Z,7.06
2024-03-24T04:07:24.641Z,7.02
2024-03-24T04:09:24.638Z,6.98
2024-03-24T04:11:24.771Z,6.9
2024-03-24T04:13:24.635Z,6.69
2024-03-24T04:15:24.614Z,6.61
2024-03-24T04:17:24.803Z,6.61
2024-03-24T04:21:04.999Z,6.6
2024-03-24T04:23:05.114Z,6.58
2024-03-24T04:25:04.982Z,6.6
2024-03-24T04:27:05.544Z,6.55
2024-03-24T04:29:04.992Z,6.5
2024-03-24T04:31:04.990Z,6.47
2024-03-24T04:33:04.987Z,6.49
2024-03-24T04:35:56.944Z,6.41
2024-03-24T04:37:56.851Z,6.44
2024-03-24T04:39:56.872Z,6.5
2024-03-24T04:41:56.898Z,6.51
2024-03-24T04:43:56.846Z,6.53
2024-03-24T04:45:56.893Z,6.57
2024-03-24T04:47:56.916Z,6.6
2024-03-24T04:51:05.083Z,6.46
2024-03-24T04:53:32.651Z,6.5
2024-03-24T04:55:32.601Z,6.59
2024-03-24T04:57:32.576Z,6.64
2024-03-24T04:59:32.969Z,6.69
2024-03-24T05:01:32.577Z,6.68
2024-03-24T05:03:32.602Z,6.89
2024-03-24T05:05:32.699Z,6.93
2024-03-24T05:07:32.668Z,6.95
2024-03-24T05:09:34.856Z,6.93
2024-03-24T05:11:34.984Z,7.35
2024-03-24T05:13:35.251Z,7.65
2024-03-24T05:15:34.869Z,8.87
2024-03-24T05:17:36.483Z,9.95
2024-03-24T05:22:42.336Z,11.91
2024-03-24T05:24:42.498Z,11.68
2024-03-24T05:26:42.341Z,11.84
2024-03-24T05:28:46.563Z,13.29
2024-03-24T05:30:42.325Z,14.5
2024-03-24T05:32:42.308Z,15.96
2024-03-24T05:34:42.340Z,16.55
2024-03-24T05:36:21.104Z,17.03
2024-03-24T05:38:21.005Z,17.37
2024-03-24T05:40:21.015Z,16.41
2024-03-24T05:42:21.178Z,16.73
2024-03-24T05:44:21.006Z,15.09
2024-03-24T05:46:21.008Z,13.77
2024-03-24T05:48:21.197Z,12.98
2024-03-24T05:50:21.001Z,12.53
2024-03-24T05:51:59.538Z,12.12
2024-03-24T05:53:59.590Z,11.99
2024-03-24T05:55:59.967Z,11.08
2024-03-24T05:57:59.522Z,10.08
2024-03-24T05:59:59.515Z,9.67
2024-03-24T06:01:59.797Z,9.98
2024-03-24T06:03:59.504Z,10.26
2024-03-24T06:06:48.153Z,9.9
2024-03-24T06:08:48.150Z,9.01
2024-03-24T06:10:48.149Z,9.06
2024-03-24T06:12:48.328Z,9.69
2024-03-24T06:14:48.165Z,10.42
2024-03-24T06:16:48.144Z,10.78
2024-03-24T06:18:48.373Z,10.82
2024-03-24T06:22:08.282Z,10.49
2024-03-24T06:24:08.417Z,10.74
2024-03-24T06:26:08.309Z,10.96
2024-03-24T06:28:08.272Z,11.22
2024-03-24T06:30:08.361Z,11.23
2024-03-24T06:32:08.296Z,11.68
2024-03-24T06:34:08.285Z,12.04
2024-03-24T06:37:04.022Z,11.66
2024-03-24T06:39:03.732Z,12.38
2024-03-24T06:41:03.756Z,12.46
2024-03-24T06:43:03.859Z,12.19
2024-03-24T06:45:04.000Z,12.56
2024-03-24T06:47:03.754Z,12.16
2024-03-24T06:49:03.805Z,12.84
2024-03-24T06:52:49.874Z,12.87
2024-03-24T06:54:49.993Z,13.24
2024-03-24T06:56:49.867Z,14.04
2024-03-24T06:58:49.875Z,14.55
2024-03-24T07:00:49.953Z,14.12
2024-03-24T07:02:49.876Z,14.55
2024-03-24T07:04:49.871Z,14.85
2024-03-24T07:07:30.538Z,14.85
2024-03-24T07:09:30.468Z,14.5
2024-03-24T07:11:30.465Z,14.88
2024-03-24T07:13:30.493Z,15.08
2024-03-24T07:15:30.447Z,15.23
2024-03-24T07:17:30.497Z,15.48
2024-03-24T07:19:30.519Z,15.81
2024-03-24T07:22:20.048Z,15.72
2024-03-24T07:24:19.973Z,15.89
2024-03-24T07:26:21.723Z,16.02
2024-03-24T07:28:20.113Z,15.72
2024-03-24T07:30:19.976Z,16.05
2024-03-24T07:32:19.974Z,16.3
2024-03-24T07:34:20.112Z,16.34
2024-03-24T07:37:23.916Z,16.29
2024-03-24T07:39:23.947Z,16.52
2024-03-24T07:41:23.842Z,16.66
2024-03-24T07:43:24.142Z,17.01
2024-03-24T07:45:23.852Z,17.18
2024-03-24T07:47:23.835Z,17.07
2024-03-24T07:49:23.939Z,16.98
2024-03-24T07:51:23.843Z,16.96
2024-03-24T07:52:49.164Z,17.01
2024-03-24T07:54:49.065Z,17.2
2024-03-24T07:56:49.048Z,16.91
2024-03-24T07:58:49.066Z,16.97
2024-03-24T08:00:49.071Z,17.1
2024-03-24T08:04:21.793Z,17.12
2024-03-24T08:06:17.143Z,17.49
2024-03-24T08:08:17.158Z,17.59
2024-03-24T08:10:17.188Z,17.75
2024-03-24T08:12:17.156Z,17.89
2024-03-24T08:14:17.130Z,17.23
2024-03-24T08:16:18.059Z,17.44
2024-03-24T08:18:17.126Z,18.02
2024-03-24T08:20:08.913Z,17.88
2024-03-24T08:22:08.973Z,17.92
2024-03-24T08:24:08.919Z,18.34
2024-03-24T08:26:09.166Z,18.28
2024-03-24T08:28:08.908Z,17.33
2024-03-24T08:30:08.905Z,18.43
2024-03-24T08:32:08.971Z,18.27
2024-03-24T08:35:36.624Z,18.14
2024-03-24T08:37:36.755Z,18.2
2024-03-24T08:39:36.638Z,18
2024-03-24T08:41:36.620Z,17.88
2024-03-24T08:43:36.700Z,17.85
2024-03-24T08:45:37.219Z,18.16
2024-03-24T08:47:36.624Z,18.68
2024-03-24T08:50:24.037Z,18.64
2024-03-24T08:52:24.151Z,18.4
2024-03-24T08:54:24.037Z,18.95
2024-03-24T08:56:24.081Z,19.06
2024-03-24T08:58:24.138Z,19.29
2024-03-24T09:00:24.050Z,19.42
2024-03-24T09:02:24.042Z,19.86
2024-03-24T09:05:14.499Z,20.15
2024-03-24T09:07:14.383Z,19.74
2024-03-24T09:09:14.411Z,19.87
2024-03-24T09:11:14.510Z,20.36
2024-03-24T09:13:14.399Z,20.35
2024-03-24T09:15:14.384Z,20.3
2024-03-24T09:17:14.427Z,20.16
2024-03-24T09:20:20.809Z,20.15
2024-03-24T09:22:20.799Z,20.05
2024-03-24T09:24:20.787Z,20.07
2024-03-24T09:26:20.784Z,20.65
2024-03-24T09:28:20.753Z,20.92
2024-03-24T09:30:20.916Z,21.24
2024-03-24T09:32:20.765Z,19.82
2024-03-24T09:35:39.317Z,20.56
2024-03-24T09:37:39.434Z,20.06
2024-03-24T09:39:39.295Z,19.55
2024-03-24T09:41:39.301Z,20.03
2024-03-24T09:43:39.324Z,20.72
2024-03-24T09:45:39.305Z,20.55
2024-03-24T09:47:39.279Z,20.99
2024-03-24T09:51:08.337Z,21.12
2024-03-24T09:53:08.124Z,20.15
2024-03-24T09:55:08.152Z,20.99
2024-03-24T09:57:09.167Z,21.19
2024-03-24T09:59:08.119Z,21.51
2024-03-24T10:01:08.122Z,21.74
2024-03-24T10:03:08.254Z,21.61
2024-03-24T10:06:13.411Z,21.89
2024-03-24T10:08:13.698Z,21.89
2024-03-24T10:10:13.645Z,21.64
2024-03-24T10:12:13.356Z,21.83
2024-03-24T10:14:14.520Z,21.9
2024-03-24T10:16:13.521Z,21.24
2024-03-24T10:18:13.335Z,21.21
2024-03-24T10:21:24.836Z,22
2024-03-24T10:23:24.497Z,22.42
2024-03-24T10:25:24.528Z,22.23
2024-03-24T10:27:24.513Z,22.67
2024-03-24T10:29:24.503Z,21.53
2024-03-24T10:31:24.504Z,22.04
2024-03-24T10:33:24.579Z,21.9
2024-03-24T10:36:19.352Z,22.41
2024-03-24T10:38:19.397Z,23.01
2024-03-24T10:40:19.659Z,23.13
2024-03-24T10:42:19.359Z,22.81
2024-03-24T10:44:19.357Z,23.32
2024-03-24T10:46:21.769Z,23.44
2024-03-24T10:48:19.338Z,23.44
2024-03-24T10:51:07.069Z,23.3
2024-03-24T10:53:07.109Z,23.61
2024-03-24T10:55:07.118Z,23.09
2024-03-24T10:57:07.081Z,23.16
2024-03-24T10:59:08.367Z,23.7
2024-03-24T11:01:07.050Z,23.05
2024-03-24T11:03:07.115Z,23.72
2024-03-24T11:06:01.362Z,23.93
2024-03-24T11:08:01.621Z,23.84
2024-03-24T11:10:01.429Z,23.8
2024-03-24T11:12:01.381Z,23.85
2024-03-24T11:14:01.409Z,23.34
2024-03-24T11:16:01.470Z,23.36
2024-03-24T11:18:01.335Z,22.83
2024-03-24T11:20:01.488Z,23.16
2024-03-24T11:22:03.312Z,22.89
2024-03-24T11:24:03.309Z,22.85
2024-03-24T11:26:03.389Z,22.79
2024-03-24T11:28:03.330Z,23.15
2024-03-24T11:30:03.292Z,23.06
2024-03-24T11:32:03.366Z,23.01
2024-03-24T11:34:03.289Z,22.99
2024-03-24T11:36:48.775Z,23.12
2024-03-24T11:38:48.863Z,23.13
2024-03-24T11:40:49.973Z,22.63
2024-03-24T11:42:48.744Z,22.56
2024-03-24T11:44:48.747Z,22.38
2024-03-24T11:46:48.748Z,22.81
2024-03-24T11:48:48.744Z,22.97
2024-03-24T11:52:15.171Z,23.28
2024-03-24T11:54:15.093Z,22.52
2024-03-24T11:56:15.134Z,22.43
2024-03-24T11:58:15.542Z,22.34
2024-03-24T12:00:15.057Z,22.52
2024-03-24T12:02:15.062Z,22.23
2024-03-24T12:04:15.142Z,21.74
2024-03-24T12:07:02.818Z,21.64
2024-03-24T12:09:03.038Z,21.77
2024-03-24T12:11:02.824Z,21.3
2024-03-24T12:13:02.780Z,21.03
2024-03-24T12:15:02.947Z,21.54
2024-03-24T12:17:03.799Z,21.5
2024-03-24T12:19:02.988Z,21.44
2024-03-24T12:22:30.273Z,20.73
2024-03-24T12:24:30.283Z,20.57
2024-03-24T12:26:30.474Z,20.67
2024-03-24T12:28:30.294Z,20.71
2024-03-24T12:30:30.379Z,21.47
2024-03-24T12:32:30.319Z,22.12
2024-03-24T12:34:30.408Z,21.83
2024-03-24T12:36:30.242Z,21.95
2024-03-24T12:38:47.443Z,21.43
2024-03-24T12:40:47.367Z,20.97
2024-03-24T12:42:47.123Z,20.79
2024-03-24T12:44:47.130Z,20.56
2024-03-24T12:46:47.078Z,20.71
2024-03-24T12:48:47.039Z,20.95
2024-03-24T12:50:47.243Z,20.8
2024-03-24T12:53:32.283Z,20.74
2024-03-24T12:55:32.287Z,21.13
2024-03-24T12:57:32.403Z,21.43
2024-03-24T12:59:32.259Z,21.76
2024-03-24T13:01:32.296Z,21.59
2024-03-24T13:03:32.337Z,21.48
2024-03-24T13:05:32.393Z,21.1
2024-03-24T13:08:34.791Z,20.62
2024-03-24T13:10:34.702Z,20.77
2024-03-24T13:12:34.663Z,21.02
2024-03-24T13:14:34.692Z,20.96
2024-03-24T13:16:34.691Z,21.1
2024-03-24T13:18:34.619Z,21.03
2024-03-24T13:20:34.783Z,20.83
2024-03-24T13:23:17.277Z,20.8
2024-03-24T13:25:17.436Z,20.83
2024-03-24T13:27:17.292Z,20.35
2024-03-24T13:29:17.272Z,20.71
2024-03-24T13:31:18.083Z,20.69
2024-03-24T13:33:17.277Z,20.72
2024-03-24T13:35:17.276Z,20.89
2024-03-24T13:37:18.118Z,21.14
2024-03-24T13:38:29.763Z,21.23
2024-03-24T13:40:29.648Z,20.82
2024-03-24T13:42:29.652Z,21.14
2024-03-24T13:44:29.620Z,21.1
2024-03-24T13:46:29.633Z,21.02
2024-03-24T13:48:29.672Z,20.83
2024-03-24T13:50:29.617Z,20.85
2024-03-24T13:54:09.416Z,20.71
2024-03-24T13:56:09.370Z,20.41
2024-03-24T13:58:09.402Z,20.29
2024-03-24T14:00:09.490Z,20.25
2024-03-24T14:02:09.365Z,20.24
2024-03-24T14:04:09.400Z,20.42
2024-03-24T14:06:09.440Z,20.42
2024-03-24T14:09:06.209Z,20.04
2024-03-24T14:11:04.424Z,20.23
2024-03-24T14:13:06.140Z,20.44
2024-03-24T14:15:04.413Z,20.56
2024-03-24T14:17:04.431Z,20.42
2024-03-24T14:19:06.089Z,20.41
2024-03-24T14:21:04.435Z,20.04
2024-03-24T14:24:24.470Z,20.29
2024-03-24T14:26:24.398Z,20.32
2024-03-24T14:28:24.340Z,20.29
2024-03-24T14:30:25.042Z,20.09
2024-03-24T14:32:24.364Z,20.15
2024-03-24T14:34:24.386Z,20.25
2024-03-24T14:36:25.074Z,19.89
2024-03-24T14:39:35.682Z,19.85
2024-03-24T14:41:35.921Z,19.99
2024-03-24T14:43:35.472Z,20.02
2024-03-24T14:45:35.202Z,19.94
2024-03-24T14:47:35.406Z,19.85
2024-03-24T14:49:35.194Z,19.58
2024-03-24T14:51:35.183Z,19.54
2024-03-24T14:54:42.481Z,19.27
2024-03-24T14:56:42.171Z,19.19
2024-03-24T14:58:42.140Z,19.13
2024-03-24T15:00:42.637Z,19.11
2024-03-24T15:02:42.153Z,19.28
2024-03-24T15:04:42.179Z,19.46
2024-03-24T15:06:42.496Z,19.44
2024-03-24T15:09:23.541Z,19.25
2024-03-24T15:11:23.517Z,19.25
2024-03-24T15:13:23.594Z,19.07
2024-03-24T15:15:23.577Z,18.95
2024-03-24T15:17:23.639Z,18.86
2024-03-24T15:19:23.609Z,18.68
2024-03-24T15:21:23.524Z,18.6
2024-03-24T15:25:10.523Z,18.56
2024-03-24T15:27:10.518Z,18.32
2024-03-24T15:29:10.531Z,18.29
2024-03-24T15:31:10.635Z,18.19
2024-03-24T15:33:10.456Z,18.25
2024-03-24T15:35:10.545Z,18.19
2024-03-24T15:37:10.704Z,18.17
2024-03-24T15:39:24.501Z,18.19
2024-03-24T15:41:24.493Z,18.01
2024-03-24T15:43:27.754Z,17.83
2024-03-24T15:45:24.491Z,17.83
2024-03-24T15:47:24.616Z,17.75
2024-03-24T15:49:24.479Z,17.55
2024-03-24T15:51:25.132Z,17.48
2024-03-24T15:53:25.114Z,17.38
2024-03-24T15:54:50.229Z,17.35
2024-03-24T15:56:50.251Z,17.36
2024-03-24T15:58:53.641Z,17.31
2024-03-24T16:00:50.252Z,17.07
2024-03-24T16:02:50.271Z,16.99
2024-03-24T16:04:50.500Z,16.92
2024-03-24T16:06:50.309Z,16.99
2024-03-24T16:10:33.469Z,16.91
2024-03-24T16:12:33.248Z,16.8
2024-03-24T16:14:33.281Z,16.84
2024-03-24T16:16:34.300Z,16.87
2024-03-24T16:18:33.203Z,16.89
2024-03-24T16:20:35.205Z,16.87
2024-03-24T16:22:33.214Z,16.7
2024-03-24T16:24:58.441Z,16.66
2024-03-24T16:26:56.909Z,16.53
2024-03-24T16:28:56.749Z,16.57
2024-03-24T16:30:56.751Z,16.44
2024-03-24T16:32:56.936Z,16.39
2024-03-24T16:34:56.951Z,16.35
2024-03-24T16:36:56.735Z,16.35
2024-03-24T16:40:41.654Z,16.13
2024-03-24T16:42:40.661Z,16.08
2024-03-24T16:44:40.627Z,16.01
2024-03-24T16:46:40.744Z,15.97
2024-03-24T16:48:40.606Z,15.93
2024-03-24T16:50:40.622Z,15.84
2024-03-24T16:52:40.755Z,15.86
2024-03-24T16:55:47.816Z,15.86
2024-03-24T16:57:46.224Z,15.92
2024-03-24T16:59:46.009Z,15.92
2024-03-24T17:01:45.982Z,15.86
2024-03-24T17:03:46.073Z,15.77
2024-03-24T17:05:46.114Z,15.68
2024-03-24T17:07:46.015Z,15.62
2024-03-24T17:10:28.022Z,15.52
2024-03-24T17:12:28.098Z,15.46
2024-03-24T17:14:28.129Z,15.34
2024-03-24T17:16:27.259Z,15.28
2024-03-24T17:18:27.220Z,15.25
2024-03-24T17:20:28.159Z,15.19
2024-03-24T17:22:27.268Z,15.13
2024-03-24T17:25:56.597Z,15.06
2024-03-24T17:27:56.518Z,15.1
2024-03-24T17:29:56.655Z,15.07
2024-03-24T17:31:56.792Z,15.06
2024-03-24T17:33:57.527Z,15.12
2024-03-24T17:35:56.605Z,15.11
2024-03-24T17:37:56.922Z,15.05
2024-03-24T17:40:50.224Z,14.89
2024-03-24T17:42:50.176Z,14.86
2024-03-24T17:44:50.102Z,14.81
2024-03-24T17:46:50.063Z,14.8
2024-03-24T17:48:50.527Z,14.77
2024-03-24T17:50:50.048Z,14.75
2024-03-24T17:52:50.048Z,14.65
2024-03-24T17:55:43.459Z,14.64
2024-03-24T17:57:43.355Z,14.59
2024-03-24T17:59:43.513Z,14.59
2024-03-24T18:01:45.480Z,14.66
2024-03-24T18:03:43.357Z,14.58
2024-03-24T18:05:43.587Z,14.62
2024-03-24T18:07:43.425Z,14.57
2024-03-24T18:11:00.922Z,14.57
2024-03-24T18:12:54.999Z,14.55
2024-03-24T18:14:54.791Z,14.45
2024-03-24T18:16:54.842Z,14.49
2024-03-24T18:18:55.192Z,14.47
2024-03-24T18:20:54.805Z,14.48
2024-03-24T18:22:54.872Z,14.51
2024-03-24T18:26:42.460Z,14.47
2024-03-24T18:28:42.012Z,14.53
2024-03-24T18:30:41.978Z,14.56
2024-03-24T18:32:44.286Z,14.51
2024-03-24T18:34:41.972Z,14.39
2024-03-24T18:36:42.047Z,14.43
2024-03-24T18:38:41.978Z,14.41
2024-03-24T18:41:04.504Z,14.34
2024-03-24T18:43:04.711Z,14.41
2024-03-24T18:45:04.804Z,14.36
2024-03-24T18:47:04.376Z,14.27
2024-03-24T18:49:04.786Z,14.33
2024-03-24T18:51:04.334Z,14.3
2024-03-24T18:53:04.472Z,14.31
2024-03-24T18:56:22.449Z,14.29
2024-03-24T18:58:22.378Z,14.27
2024-03-24T19:00:22.592Z,14.3
2024-03-24T19:02:22.378Z,14.33
2024-03-24T19:04:22.392Z,14.29
2024-03-24T19:06:22.437Z,14.24
2024-03-24T19:08:22.392Z,14.34
2024-03-24T19:11:23.859Z,14.32
2024-03-24T19:13:20.599Z,14.24
2024-03-24T19:15:20.589Z,14.28
2024-03-24T19:17:23.896Z,14.25
2024-03-24T19:19:20.963Z,14.26
2024-03-24T19:21:20.614Z,14.29
2024-03-24T19:23:20.597Z,14.26
2024-03-24T19:26:47.597Z,14.28
2024-03-24T19:28:46.861Z,14.3
2024-03-24T19:30:46.855Z,14.18
2024-03-24T19:32:47.642Z,14.26
2024-03-24T19:34:46.999Z,14.3
2024-03-24T19:36:46.863Z,14.23
2024-03-24T19:38:46.851Z,14.29
2024-03-24T19:42:05.075Z,14.12
2024-03-24T19:44:04.519Z,14.16
2024-03-24T19:46:04.636Z,14.13
2024-03-24T19:48:05.496Z,14.12
2024-03-24T19:50:04.515Z,14.05
2024-03-24T19:52:04.527Z,14.05
2024-03-24T19:54:05.489Z,14.01
2024-03-24T19:57:17.896Z,13.94
2024-03-24T19:59:18.385Z,13.81
2024-03-24T20:01:17.899Z,13.64
2024-03-24T20:03:17.914Z,13.3
2024-03-24T20:05:18.027Z,13.33
2024-03-24T20:07:17.903Z,13.31
2024-03-24T20:09:17.880Z,13.29
2024-03-24T20:11:54.426Z,13.14
2024-03-24T20:13:54.131Z,13.14
2024-03-24T20:15:54.137Z,13.1
2024-03-24T20:17:58.243Z,13.08
2024-03-24T20:19:54.176Z,12.99
2024-03-24T20:21:54.158Z,12.76
2024-03-24T20:23:54.277Z,12.72
2024-03-24T20:27:13.487Z,12
2024-03-24T20:29:14.556Z,12.02
2024-03-24T20:31:13.482Z,12
2024-03-24T20:33:13.490Z,11.97
2024-03-24T20:35:13.897Z,11.93
2024-03-24T20:37:13.489Z,11.75
2024-03-24T20:39:13.494Z,11.73
2024-03-24T20:42:36.567Z,11.69
2024-03-24T20:44:36.478Z,11.62
2024-03-24T20:46:37.043Z,11.56
2024-03-24T20:48:36.497Z,11.4
2024-03-24T20:50:36.494Z,11.17
2024-03-24T20:52:43.211Z,11.21
2024-03-24T20:54:36.585Z,11.31
2024-03-24T20:57:36.161Z,11.19
2024-03-24T20:59:35.991Z,11.07
2024-03-24T21:01:35.932Z,11
2024-03-24T21:03:36.304Z,10.9
2024-03-24T21:05:35.984Z,10.92
2024-03-24T21:07:35.922Z,10.97
2024-03-24T21:09:36.178Z,10.9
2024-03-24T21:12:19.440Z,10.88
2024-03-24T21:14:19.404Z,10.77
2024-03-24T21:16:20.744Z,10.68
2024-03-24T21:18:19.393Z,10.62
2024-03-24T21:20:19.397Z,10.41
2024-03-24T21:22:19.569Z,10.4
2024-03-24T21:24:19.424Z,10.5
2024-03-24T21:26:19.396Z,10.42
2024-03-24T21:27:36.872Z,10.35
2024-03-24T21:29:36.733Z,10.17
2024-03-24T21:31:36.809Z,10.16
2024-03-24T21:33:36.844Z,9.82
2024-03-24T21:35:36.774Z,9.78
2024-03-24T21:37:36.739Z,9.83
2024-03-24T21:39:37.074Z,9.92
2024-03-24T21:42:50.170Z,9.91
2024-03-24T21:44:50.083Z,9.9
2024-03-24T21:46:50.099Z,9.89
2024-03-24T21:48:50.402Z,9.88
2024-03-24T21:50:50.080Z,9.92
2024-03-24T21:52:50.061Z,9.93
2024-03-24T21:54:50.170Z,9.78
2024-03-24T21:58:00.964Z,9.84
2024-03-24T22:00:01.041Z,9.83
